Time;durP1;ratioP1;P1;durP2;ratioP2;P2;SDS_P1;SDS_P2;PMS_P1;PMS_P2;Temp;Humidity;BMP_temperature;BMP_pressure;BME280_temperature;BME280_humidity;BME280_pressure;Samples;Min_cycle;Max_cycle;Signal;HPM_P1;HPM_P2
2024/01/11 00:00:17;;;;;;;73.40;35.07;;;-9.70;99.90;-10.60;101936.00;;;;4904068;28;123294;-65
2024/01/11 00:02:42;;;;;;;92.40;39.73;;;-9.70;99.90;-10.70;101944.00;;;;4907551;28;93296;-65
2024/01/11 00:05:09;;;;;;;79.67;38.70;;;-9.80;99.90;-10.70;101935.00;;;;4919586;28;112315;-66
2024/01/11 00:07:35;;;;;;;79.33;36.20;;;-9.90;99.90;-10.80;101939.00;;;;4904674;28;96278;-66
2024/01/11 00:10:02;;;;;;;85.73;36.20;;;-9.90;99.90;-10.80;101942.00;;;;4909904;28;93640;-67
2024/01/11 00:12:28;;;;;;;88.57;36.40;;;-10.10;99.90;-10.80;101954.00;;;;4905392;28;93915;-65
2024/01/11 00:14:54;;;;;;;72.30;35.27;;;-9.70;99.90;-10.90;101945.00;;;;4908663;28;113194;-65
2024/01/11 00:17:19;;;;;;;77.30;38.50;;;-9.00;99.90;-10.90;101919.00;;;;4907596;28;92825;-66
2024/01/11 00:19:45;;;;;;;80.93;39.17;;;-9.80;99.90;-10.90;101921.00;;;;4908124;28;122620;-66
2024/01/11 00:22:11;;;;;;;71.10;36.03;;;-10.10;99.90;-10.90;101923.00;;;;4907921;28;93649;-65
2024/01/11 00:24:36;;;;;;;85.70;38.00;;;-10.00;99.90;-11.00;101912.00;;;;4905790;28;93072;-65
2024/01/11 00:27:02;;;;;;;83.67;38.83;;;-10.20;99.90;-11.00;101905.00;;;;4909321;28;92965;-66
2024/01/11 00:29:28;;;;;;;83.97;37.27;;;-10.00;99.90;-11.00;101897.00;;;;4905793;28;109908;-66
2024/01/11 00:31:54;;;;;;;80.33;35.43;;;-10.20;99.90;-11.10;101906.00;;;;4909007;28;92987;-64
2024/01/11 00:34:21;;;;;;;73.33;38.10;;;-10.30;99.90;-11.20;101904.00;;;;4903474;28;92898;-65
2024/01/11 00:36:47;;;;;;;67.40;35.50;;;-10.30;99.90;-11.20;101907.00;;;;4906868;28;93928;-64
2024/01/11 00:39:13;;;;;;;84.03;37.60;;;-10.30;99.90;-11.20;101901.00;;;;4907353;28;114596;-65
2024/01/11 00:41:38;;;;;;;75.00;33.17;;;-9.90;99.90;-11.20;101909.00;;;;4902250;28;122560;-65
2024/01/11 00:44:04;;;;;;;75.60;32.87;;;-9.50;99.90;-11.10;101896.00;;;;4909857;28;92724;-66
2024/01/11 00:46:30;;;;;;;72.67;37.07;;;-9.30;99.90;-11.10;101904.00;;;;4908878;28;108063;-67
2024/01/11 00:48:56;;;;;;;72.73;35.07;;;-10.20;99.90;-11.10;101897.00;;;;4910856;28;93999;-66
2024/01/11 00:51:22;;;;;;;70.27;37.70;;;-10.40;99.90;-11.10;101906.00;;;;4903644;28;111494;-66
2024/01/11 00:53:47;;;;;;;76.20;35.50;;;-10.20;99.90;-11.20;101907.00;;;;4908447;28;112970;-66
2024/01/11 00:56:20;;;;;;;79.13;38.13;;;-10.30;99.90;-11.20;101897.00;;;;4903479;28;93715;-64
2024/01/11 00:58:46;;;;;;;76.80;37.63;;;-10.40;99.90;-11.20;101899.00;;;;4906599;28;93282;-64
2024/01/11 01:01:12;;;;;;;81.23;38.70;;;-10.40;99.90;-11.30;101900.00;;;;4905352;28;97541;-66
2024/01/11 01:03:39;;;;;;;73.70;37.70;;;-10.40;99.90;-11.30;101911.00;;;;4909769;28;93212;-67
2024/01/11 01:06:10;;;;;;;73.93;36.10;;;-10.40;99.90;-11.40;101903.00;;;;4905862;28;93280;-65
2024/01/11 01:08:35;;;;;;;74.23;35.63;;;-10.60;99.90;-11.50;101894.00;;;;4904528;28;94033;-66
2024/01/11 01:11:01;;;;;;;84.73;36.97;;;-10.60;99.90;-11.50;101894.00;;;;4905911;28;123480;-66
2024/01/11 01:13:27;;;;;;;75.13;34.73;;;-10.60;99.90;-11.50;101882.00;;;;4912294;28;112203;-65
2024/01/11 01:15:52;;;;;;;74.43;36.03;;;-10.60;99.90;-11.60;101888.00;;;;4910408;28;107792;-66
2024/01/11 01:18:18;;;;;;;74.13;35.60;;;-10.70;99.90;-11.60;101894.00;;;;4907090;28;104503;-68
2024/01/11 01:20:44;;;;;;;75.17;35.50;;;-10.70;99.90;-11.50;101893.00;;;;4909169;28;92851;-66
2024/01/11 01:23:09;;;;;;;77.13;32.53;;;-10.60;99.90;-11.50;101896.00;;;;4908959;28;114045;-66
2024/01/11 01:25:35;;;;;;;63.23;33.63;;;-10.70;99.90;-11.60;101890.00;;;;4904345;28;106781;-65
2024/01/11 01:28:01;;;;;;;65.23;33.73;;;-10.70;99.90;-11.50;101877.00;;;;4906379;28;122589;-66
2024/01/11 01:30:27;;;;;;;72.23;34.77;;;-10.70;99.90;-11.60;101884.00;;;;4905919;28;105319;-66
2024/01/11 01:32:53;;;;;;;64.10;32.97;;;-10.70;99.90;-11.60;101881.00;;;;4907215;28;94505;-66
2024/01/11 01:35:19;;;;;;;62.57;33.97;;;-10.70;99.90;-11.60;101887.00;;;;4905587;28;100719;-67
2024/01/11 01:37:45;;;;;;;80.53;36.03;;;-10.60;99.90;-11.60;101886.00;;;;4900052;28;93425;-66
2024/01/11 01:40:12;;;;;;;73.03;35.33;;;-10.70;99.90;-11.60;101892.00;;;;4902736;28;93802;-65
2024/01/11 01:42:45;;;;;;;59.53;30.57;;;-10.70;99.90;-11.70;101898.00;;;;4905820;28;97435;-65
2024/01/11 01:45:12;;;;;;;67.63;32.77;;;-10.80;99.90;-11.60;101902.00;;;;4902864;28;99101;-65
2024/01/11 01:47:42;;;;;;;71.50;33.60;;;-10.70;99.90;-11.60;101885.00;;;;4903608;28;93114;-65
2024/01/11 01:50:10;;;;;;;66.33;33.00;;;-10.70;99.90;-11.60;101885.00;;;;4919642;28;94744;-65
2024/01/11 01:52:38;;;;;;;72.60;33.73;;;-10.70;99.90;-11.60;101882.00;;;;4901539;28;92852;-66
2024/01/11 01:55:05;;;;;;;86.10;35.40;;;-10.70;99.90;-11.60;101881.00;;;;4913694;28;94628;-65
2024/01/11 01:57:33;;;;;;;67.07;36.13;;;-10.70;99.90;-11.60;101884.00;;;;4906205;28;115344;-65
2024/01/11 01:59:59;;;;;;;66.77;30.83;;;-10.70;99.90;-11.70;101886.00;;;;4907333;28;93402;-65
2024/01/11 02:02:25;;;;;;;73.67;31.37;;;-10.80;99.90;-11.70;101892.00;;;;4902645;28;111541;-64
2024/01/11 02:04:51;;;;;;;67.13;33.47;;;-10.90;99.90;-11.60;101886.00;;;;4906753;28;108670;-64
2024/01/11 02:07:18;;;;;;;67.17;33.77;;;-10.80;99.90;-11.60;101905.00;;;;4909373;28;93160;-66
2024/01/11 02:09:44;;;;;;;63.50;32.73;;;-10.80;99.90;-11.60;101912.00;;;;4906250;28;120798;-65
2024/01/11 02:12:12;;;;;;;73.93;34.77;;;-10.80;99.90;-11.60;101912.00;;;;4904227;28;111993;-66
2024/01/11 02:14:38;;;;;;;70.50;34.23;;;-10.70;99.90;-11.60;101919.00;;;;4908697;28;93931;-65
2024/01/11 02:17:04;;;;;;;78.27;35.47;;;-10.70;99.90;-11.60;101912.00;;;;4908021;28;114023;-65
2024/01/11 02:19:30;;;;;;;72.10;32.20;;;-10.00;99.90;-11.60;101907.00;;;;4908129;28;123212;-65
2024/01/11 02:22:08;;;;;;;69.53;33.10;;;-10.70;99.90;-11.60;101918.00;;;;4904125;28;92932;-65
2024/01/11 02:24:33;;;;;;;73.33;33.83;;;-10.70;99.90;-11.50;101919.00;;;;4904490;28;93283;-66
2024/01/11 02:27:01;;;;;;;66.93;32.67;;;-10.60;99.90;-11.50;101908.00;;;;4910952;28;121109;-66
2024/01/11 02:29:29;;;;;;;67.90;34.97;;;-10.70;99.90;-11.50;101916.00;;;;4904758;28;96471;-66
2024/01/11 02:31:56;;;;;;;67.20;33.10;;;-10.70;99.90;-11.50;101913.00;;;;4903895;28;92549;-67
2024/01/11 02:34:24;;;;;;;65.30;33.57;;;-10.70;99.90;-11.50;101894.00;;;;4917094;28;98122;-65
2024/01/11 02:36:50;;;;;;;63.50;31.63;;;-10.70;99.90;-11.60;101911.00;;;;4920756;28;93334;-65
2024/01/11 02:39:18;;;;;;;68.37;33.47;;;-10.70;99.90;-11.60;101935.00;;;;4920973;28;122800;-64
2024/01/11 02:41:45;;;;;;;75.87;35.17;;;-10.70;99.90;-11.60;101920.00;;;;4907451;28;103431;-67
2024/01/11 02:44:11;;;;;;;67.63;33.23;;;-11.10;99.90;-11.60;101909.00;;;;4904525;28;92800;-64
2024/01/11 02:46:36;;;;;;;69.10;32.87;;;-10.80;99.90;-11.60;101902.00;;;;4906742;28;122773;-66
2024/01/11 02:49:02;;;;;;;72.87;34.83;;;-10.10;99.90;-11.60;101879.00;;;;4906750;28;122564;-65
2024/01/11 02:51:28;;;;;;;73.93;32.10;;;-10.70;99.90;-11.70;101879.00;;;;4907071;28;93306;-65
2024/01/11 02:53:53;;;;;;;69.43;31.43;;;-10.80;99.90;-11.70;101879.00;;;;4904935;28;104482;-64
2024/01/11 02:56:19;;;;;;;70.27;32.90;;;-10.80;99.90;-11.70;101895.00;;;;4906786;28;121188;-65
2024/01/11 02:58:45;;;;;;;64.77;30.27;;;-11.00;99.90;-11.70;101856.00;;;;4903759;28;122529;-65
2024/01/11 03:01:10;;;;;;;61.57;30.97;;;-10.80;99.90;-11.70;101861.00;;;;4904565;28;113077;-65
2024/01/11 03:03:36;;;;;;;61.90;30.83;;;-9.90;99.90;-11.70;101865.00;;;;4902450;28;108475;-67
2024/01/11 03:06:02;;;;;;;65.53;32.33;;;-10.60;99.90;-11.70;101862.00;;;;4903810;28;93124;-64
2024/01/11 03:08:29;;;;;;;64.37;30.77;;;-10.80;99.90;-11.70;101863.00;;;;4911213;28;93877;-65
2024/01/11 03:10:54;;;;;;;68.97;33.90;;;-10.30;99.90;-11.70;101859.00;;;;4908004;28;111966;-65
2024/01/11 03:13:20;;;;;;;67.90;33.70;;;-10.80;99.90;-11.70;101865.00;;;;4908546;28;106004;-64
2024/01/11 03:15:46;;;;;;;63.93;32.70;;;-10.80;99.90;-11.60;101877.00;;;;4908292;28;93067;-66
2024/01/11 03:18:11;;;;;;;62.90;31.93;;;-10.80;99.90;-11.60;101864.00;;;;4909309;28;92979;-65
2024/01/11 03:20:37;;;;;;;82.27;33.83;;;-10.70;99.90;-11.60;101874.00;;;;4905783;28;114073;-65
2024/01/11 03:23:03;;;;;;;79.10;35.30;;;-10.90;99.90;-11.50;101873.00;;;;4908696;28;108193;-65
2024/01/11 03:25:32;;;;;;;66.67;33.50;;;-10.70;99.90;-11.50;101864.00;;;;4909760;28;124775;-65
2024/01/11 03:28:00;;;;;;;69.77;35.60;;;-10.60;99.90;-11.40;101857.00;;;;4903404;28;122897;-64
2024/01/11 03:30:26;;;;;;;71.40;35.70;;;-10.50;99.90;-11.50;101862.00;;;;4908473;28;112597;-65
2024/01/11 03:32:52;;;;;;;81.90;34.63;;;-10.50;99.90;-11.40;101875.00;;;;4912239;28;97551;-66
2024/01/11 03:35:18;;;;;;;82.90;36.13;;;-10.60;99.90;-11.50;101870.00;;;;4906525;28;120413;-65
2024/01/11 03:37:45;;;;;;;71.00;33.70;;;-10.70;99.90;-11.50;101863.00;;;;4907441;28;122761;-66
2024/01/11 03:40:11;;;;;;;84.27;37.87;;;-10.60;99.90;-11.50;101848.00;;;;4908555;28;113061;-65
2024/01/11 03:42:36;;;;;;;77.57;35.10;;;-10.30;99.90;-11.50;101861.00;;;;4906180;28;109011;-65
2024/01/11 03:45:03;;;;;;;69.87;34.50;;;-10.60;99.90;-11.50;101873.00;;;;4911614;28;122145;-65
2024/01/11 03:47:29;;;;;;;67.23;33.37;;;-10.60;99.90;-11.50;101870.00;;;;4912889;28;93001;-66
2024/01/11 03:49:55;;;;;;;69.90;32.77;;;-10.70;99.90;-11.50;101877.00;;;;4910683;28;103857;-65
2024/01/11 03:52:20;;;;;;;67.83;30.63;;;-10.80;99.90;-11.50;101894.00;;;;4909434;28;96860;-66
2024/01/11 03:54:46;;;;;;;68.90;32.40;;;-10.10;99.90;-11.50;101883.00;;;;4908675;28;94137;-65
2024/01/11 03:57:12;;;;;;;61.60;30.20;;;-10.30;99.90;-11.50;101908.00;;;;4907379;28;94381;-65
2024/01/11 03:59:37;;;;;;;63.87;33.83;;;-10.00;99.90;-11.50;101915.00;;;;4909717;28;113192;-65
2024/01/11 04:02:03;;;;;;;68.77;32.00;;;-10.80;99.90;-11.40;101918.00;;;;4903553;28;108885;-65
2024/01/11 04:04:29;;;;;;;80.50;35.50;;;-10.50;99.90;-11.40;101916.00;;;;4910630;28;93455;-66
2024/01/11 04:06:55;;;;;;;74.70;36.37;;;-10.60;99.90;-11.40;101904.00;;;;4914198;28;122712;-67
2024/01/11 04:09:20;;;;;;;70.17;33.50;;;-10.50;99.90;-11.30;101903.00;;;;4907502;28;111017;-66
2024/01/11 04:11:46;;;;;;;71.30;34.40;;;-10.40;99.90;-11.30;101900.00;;;;4908333;28;92829;-65
2024/01/11 04:14:12;;;;;;;80.77;34.70;;;-10.50;99.90;-11.30;101912.00;;;;4902394;28;93311;-65
2024/01/11 04:16:44;;;;;;;68.40;31.97;;;-10.50;99.90;-11.30;101918.00;;;;4902136;28;121262;-66
2024/01/11 04:19:10;;;;;;;66.40;31.53;;;-10.40;99.90;-11.30;101906.00;;;;4906095;28;103516;-66
2024/01/11 04:21:38;;;;;;;66.13;33.70;;;-10.30;99.90;-11.30;101899.00;;;;4903929;28;108007;-65
2024/01/11 04:24:08;;;;;;;69.50;34.40;;;-10.50;99.90;-11.40;101889.00;;;;4904146;28;92958;-65
2024/01/11 04:26:34;;;;;;;76.50;36.20;;;-10.50;99.90;-11.40;101884.00;;;;4906696;28;93944;-65
2024/01/11 04:29:00;;;;;;;70.83;36.00;;;-9.50;99.90;-11.40;101899.00;;;;4910953;28;93156;-65
2024/01/11 04:31:26;;;;;;;74.37;34.33;;;-10.60;99.90;-11.40;101890.00;;;;4904796;28;94566;-66
2024/01/11 04:33:52;;;;;;;73.33;35.97;;;-10.60;99.90;-11.40;101876.00;;;;4905142;28;92896;-66
2024/01/11 04:36:18;;;;;;;71.57;34.43;;;-10.70;99.90;-11.50;101861.00;;;;4904932;28;93057;-66
2024/01/11 04:38:44;;;;;;;72.27;34.90;;;-9.80;99.90;-11.60;101843.00;;;;4891491;28;101949;-65
2024/01/11 04:41:14;;;;;;;67.27;32.70;;;-10.50;99.90;-11.60;101873.00;;;;4908406;28;93918;-66
2024/01/11 04:43:44;;;;;;;64.90;31.70;;;-10.70;99.90;-11.60;101863.00;;;;4903727;28;93978;-66
2024/01/11 04:46:17;;;;;;;68.30;31.20;;;-9.90;99.90;-11.60;101887.00;;;;4895473;28;104285;-65
2024/01/11 04:48:44;;;;;;;57.70;30.27;;;-10.70;99.90;-11.60;101871.00;;;;4905379;28;92767;-65
2024/01/11 04:51:11;;;;;;;77.53;32.50;;;-10.80;99.90;-11.60;101863.00;;;;4903639;28;92924;-65
2024/01/11 04:53:39;;;;;;;75.20;32.63;;;-10.80;99.90;-11.60;101885.00;;;;4906772;28;100742;-66
2024/01/11 04:56:06;;;;;;;76.63;33.03;;;-10.60;99.90;-11.50;101880.00;;;;4906886;28;94013;-66
2024/01/11 04:58:32;;;;;;;71.90;33.17;;;-10.60;99.90;-11.50;101874.00;;;;4909078;28;99577;-65
2024/01/11 05:00:58;;;;;;;70.57;33.73;;;-10.30;99.90;-11.40;101888.00;;;;4904089;28;92960;-66
2024/01/11 05:03:23;;;;;;;73.17;33.47;;;-10.60;99.90;-11.40;101878.00;;;;4898938;28;116389;-65
2024/01/11 05:05:49;;;;;;;63.50;33.37;;;-10.70;99.90;-11.40;101887.00;;;;4910435;28;122694;-65
2024/01/11 05:08:15;;;;;;;66.83;36.37;;;-10.70;99.90;-11.30;101883.00;;;;4906465;28;94295;-64
2024/01/11 05:10:40;;;;;;;67.97;34.37;;;-10.50;99.90;-11.30;101871.00;;;;4905153;28;109133;-66
2024/01/11 05:13:06;;;;;;;73.00;34.43;;;-10.60;99.90;-11.30;101876.00;;;;4908952;28;93285;-66
2024/01/11 05:15:32;;;;;;;69.03;34.17;;;-11.50;99.90;-11.30;101892.00;;;;4905758;28;123419;-67
2024/01/11 05:17:58;;;;;;;70.60;35.83;;;-10.60;99.90;-11.30;101895.00;;;;4908514;28;112027;-65
2024/01/11 05:20:24;;;;;;;71.43;33.70;;;-10.50;99.90;-11.30;101890.00;;;;4905504;28;92936;-65
2024/01/11 05:22:49;;;;;;;85.87;39.37;;;-10.40;99.90;-11.30;101869.00;;;;4904960;28;123380;-66
2024/01/11 05:25:15;;;;;;;76.33;35.17;;;-10.40;99.90;-11.30;101851.00;;;;4906471;28;120631;-64
2024/01/11 05:27:41;;;;;;;78.07;35.07;;;-10.50;99.90;-11.30;101863.00;;;;4909831;28;113637;-66
2024/01/11 05:30:07;;;;;;;74.50;33.53;;;-10.70;99.90;-11.30;101870.00;;;;4903785;28;108835;-65
2024/01/11 05:32:33;;;;;;;69.57;32.70;;;-10.50;99.90;-11.30;101872.00;;;;4907588;28;109197;-65
2024/01/11 05:34:58;;;;;;;66.80;33.90;;;-10.40;99.90;-11.30;101900.00;;;;4908775;28;120605;-65
2024/01/11 05:37:24;;;;;;;74.70;34.83;;;-10.60;99.90;-11.30;101900.00;;;;4905578;28;108476;-65
2024/01/11 05:39:50;;;;;;;66.03;31.57;;;-9.70;99.90;-11.30;101885.00;;;;4908657;28;92956;-66
2024/01/11 05:42:16;;;;;;;67.60;33.10;;;-9.80;99.90;-11.30;101900.00;;;;4909579;28;93757;-66
2024/01/11 05:44:42;;;;;;;81.57;35.97;;;-9.70;99.90;-11.30;101903.00;;;;4906041;28;123503;-65
2024/01/11 05:47:07;;;;;;;68.53;34.03;;;-10.30;99.90;-11.30;101908.00;;;;4903442;28;92571;-65
2024/01/11 05:49:33;;;;;;;64.23;32.57;;;-10.30;99.90;-11.20;101900.00;;;;4905068;28;108755;-65
2024/01/11 05:51:58;;;;;;;61.47;31.63;;;-10.30;99.90;-11.20;101904.00;;;;4904206;28;121276;-65
2024/01/11 05:54:26;;;;;;;72.10;35.33;;;-10.40;99.90;-11.20;101904.00;;;;4904308;28;121009;-65
2024/01/11 05:56:55;;;;;;;75.40;35.57;;;-10.40;99.90;-11.20;101906.00;;;;4904180;28;93139;-65
2024/01/11 05:59:22;;;;;;;80.57;36.67;;;-10.40;99.90;-11.20;101905.00;;;;4902057;28;94320;-65
2024/01/11 06:01:47;;;;;;;67.70;37.17;;;-10.30;99.90;-11.10;101907.00;;;;4900611;28;114480;-65
2024/01/11 06:04:13;;;;;;;68.00;35.20;;;-10.30;99.90;-11.20;101891.00;;;;4903419;28;122534;-64
2024/01/11 06:06:40;;;;;;;72.43;35.13;;;-10.30;99.90;-11.10;101890.00;;;;4902475;28;113315;-65
2024/01/11 06:09:06;;;;;;;75.70;35.03;;;-10.30;99.90;-11.10;101889.00;;;;4904623;28;93106;-66
2024/01/11 06:11:32;;;;;;;76.80;36.63;;;-9.80;99.90;-11.10;101876.00;;;;4903110;28;93503;-65
2024/01/11 06:13:57;;;;;;;72.47;36.00;;;-10.60;99.90;-11.00;101862.00;;;;4903848;28;93140;-65
2024/01/11 06:16:23;;;;;;;71.07;34.47;;;-10.10;99.90;-11.10;101851.00;;;;4908817;28;113453;-65
2024/01/11 06:18:50;;;;;;;79.00;35.37;;;-10.40;99.90;-11.10;101851.00;;;;4906158;28;94336;-64
2024/01/11 06:21:17;;;;;;;73.80;34.87;;;-10.20;99.90;-11.00;101838.00;;;;4905654;28;96480;-65
2024/01/11 06:23:43;;;;;;;73.20;32.77;;;-10.30;99.90;-11.00;101845.00;;;;4904696;28;93740;-65
2024/01/11 06:26:09;;;;;;;64.97;32.50;;;-10.10;99.90;-11.00;101840.00;;;;4900660;28;94289;-66
2024/01/11 06:28:37;;;;;;;58.47;32.10;;;-10.20;99.90;-11.00;101851.00;;;;4903104;28;104621;-67
2024/01/11 06:31:03;;;;;;;80.57;36.50;;;-10.00;99.90;-10.90;101862.00;;;;4901301;28;92785;-65
2024/01/11 06:33:29;;;;;;;71.90;36.67;;;-10.00;99.90;-10.90;101845.00;;;;4902208;28;122264;-65
2024/01/11 06:35:55;;;;;;;80.53;35.67;;;-10.10;99.90;-10.80;101842.00;;;;4906532;28;92088;-65
2024/01/11 06:38:21;;;;;;;75.67;35.97;;;-9.90;99.90;-10.80;101836.00;;;;4896677;28;93244;-65
2024/01/11 06:40:48;;;;;;;69.33;34.43;;;-9.90;99.90;-10.70;101843.00;;;;4901565;28;122366;-66
2024/01/11 06:43:15;;;;;;;66.03;34.07;;;-9.80;99.90;-10.70;101839.00;;;;4900445;28;94159;-65
2024/01/11 06:45:43;;;;;;;83.53;36.23;;;-9.90;99.90;-10.60;101850.00;;;;4905355;28;92836;-65
2024/01/11 06:48:08;;;;;;;71.23;35.13;;;-9.80;99.90;-10.60;101870.00;;;;4901543;28;92899;-65
2024/01/11 06:50:34;;;;;;;70.80;35.37;;;-9.80;99.90;-10.50;101843.00;;;;4904341;28;102564;-65
2024/01/11 06:53:01;;;;;;;70.17;32.93;;;-9.00;99.90;-10.40;101862.00;;;;4903247;28;122624;-65
2024/01/11 06:55:27;;;;;;;71.80;35.50;;;-10.40;99.90;-10.30;101855.00;;;;4900867;28;92873;-65
2024/01/11 06:57:53;;;;;;;65.83;34.17;;;-8.80;99.90;-10.30;101854.00;;;;4901903;28;93146;-65
2024/01/11 07:00:19;;;;;;;76.03;35.33;;;-9.50;99.90;-10.20;101854.00;;;;4901184;28;122159;-65
2024/01/11 07:02:45;;;;;;;79.17;36.33;;;-9.50;99.90;-10.20;101851.00;;;;4899754;28;114326;-67
2024/01/11 07:05:10;;;;;;;75.63;36.80;;;-9.50;99.90;-10.10;101853.00;;;;4902244;28;93145;-66
2024/01/11 07:07:36;;;;;;;89.07;37.63;;;-9.40;99.90;-10.10;101859.00;;;;4898000;28;108507;-66
2024/01/11 07:10:01;;;;;;;70.30;35.47;;;-9.40;99.90;-10.00;101852.00;;;;4904531;28;122274;-65
2024/01/11 07:12:27;;;;;;;92.07;40.17;;;-9.20;99.90;-9.90;101855.00;;;;4901979;28;118392;-66
2024/01/11 07:14:53;;;;;;;83.97;38.53;;;-9.10;99.90;-9.80;101839.00;;;;4907709;28;112419;-66
2024/01/11 07:17:19;;;;;;;76.63;36.60;;;-8.30;99.90;-9.70;101864.00;;;;4899515;28;109197;-64
2024/01/11 07:19:44;;;;;;;80.13;37.67;;;-8.30;99.90;-9.70;101859.00;;;;4900309;28;121662;-65
2024/01/11 07:22:10;;;;;;;70.07;37.53;;;-7.90;99.90;-9.60;101857.00;;;;4901421;28;102081;-65
2024/01/11 07:24:40;;;;;;;81.07;38.13;;;-8.90;99.90;-9.50;101846.00;;;;4901350;28;111486;-65
2024/01/11 07:27:06;;;;;;;64.90;33.13;;;-8.80;99.90;-9.40;101851.00;;;;4902707;28;93386;-65
2024/01/11 07:29:35;;;;;;;73.77;35.30;;;-8.70;99.90;-9.40;101861.00;;;;4906449;28;93762;-64
2024/01/11 07:32:01;;;;;;;71.60;34.07;;;-8.60;99.90;-9.30;101884.00;;;;4904921;28;93748;-65
2024/01/11 07:34:27;;;;;;;68.77;33.80;;;-8.60;99.90;-9.20;101883.00;;;;4898744;28;92877;-65
2024/01/11 07:36:53;;;;;;;68.90;34.53;;;-8.50;99.90;-9.20;101891.00;;;;4907980;28;92870;-66
2024/01/11 07:39:19;;;;;;;70.40;32.93;;;-7.70;99.90;-9.10;101883.00;;;;4903878;28;122545;-65
2024/01/11 07:41:45;;;;;;;63.60;30.83;;;-8.40;99.90;-9.00;101900.00;;;;4902084;28;112492;-64
2024/01/11 07:44:11;;;;;;;67.27;32.63;;;-8.30;99.90;-8.90;101899.00;;;;4903834;28;101843;-64
2024/01/11 07:46:36;;;;;;;70.77;33.10;;;-8.20;99.90;-8.90;101899.00;;;;4902729;28;108830;-64
2024/01/11 07:49:05;;;;;;;70.57;35.37;;;-8.10;99.90;-8.70;101895.00;;;;4902602;28;121494;-64
2024/01/11 07:51:32;;;;;;;70.57;32.40;;;-8.10;99.90;-8.70;101875.00;;;;4907238;28;94316;-65
2024/01/11 07:53:58;;;;;;;63.83;33.87;;;-7.90;99.90;-8.60;101854.00;;;;4904505;28;93164;-64
2024/01/11 07:56:24;;;;;;;59.37;32.53;;;-7.90;99.90;-8.60;101852.00;;;;4900852;28;94821;-64
2024/01/11 07:58:49;;;;;;;71.00;34.77;;;-7.90;99.90;-8.50;101834.00;;;;4902409;28;123809;-64
2024/01/11 08:01:16;;;;;;;84.27;37.30;;;-7.70;99.90;-8.50;101846.00;;;;4901432;28;123676;-65
2024/01/11 08:03:44;;;;;;;73.07;35.43;;;-7.80;99.90;-8.50;101859.00;;;;4902725;28;111322;-65
2024/01/11 08:06:10;;;;;;;66.33;33.77;;;-7.00;99.90;-8.40;101856.00;;;;4902479;28;93108;-64
2024/01/11 08:08:38;;;;;;;74.27;36.47;;;-7.70;99.90;-8.30;101847.00;;;;4900587;28;123032;-64
2024/01/11 08:11:08;;;;;;;63.03;33.63;;;-7.60;99.90;-8.20;101845.00;;;;4902161;28;94011;-66
2024/01/11 08:13:34;;;;;;;71.27;33.37;;;-7.50;99.90;-7.90;101864.00;;;;4900905;28;92493;-65
2024/01/11 08:16:03;;;;;;;66.47;35.20;;;-7.30;99.90;-7.70;101862.00;;;;4900780;28;93304;-64
2024/01/11 08:18:29;;;;;;;75.43;35.53;;;-7.10;99.90;-7.50;101845.00;;;;4905482;28;93829;-64
2024/01/11 08:20:55;;;;;;;69.27;35.27;;;-6.90;99.90;-7.30;101853.00;;;;4901117;28;94361;-66
2024/01/11 08:23:21;;;;;;;65.93;33.33;;;-5.80;99.90;-7.10;101851.00;;;;4904243;28;112415;-66
2024/01/11 08:25:47;;;;;;;64.90;35.47;;;-6.50;99.90;-7.00;101870.00;;;;4899581;28;108515;-65
2024/01/11 08:28:12;;;;;;;67.57;34.57;;;-6.40;99.90;-6.90;101858.00;;;;4902299;28;107307;-66
2024/01/11 08:30:38;;;;;;;69.40;34.67;;;-6.30;99.90;-6.70;101838.00;;;;4902213;28;93728;-65
2024/01/11 08:33:04;;;;;;;77.33;33.57;;;-6.10;99.90;-6.60;101838.00;;;;4900261;28;99977;-65
2024/01/11 08:35:31;;;;;;;64.17;32.50;;;-5.90;99.90;-6.50;101845.00;;;;4902446;28;108391;-65
2024/01/11 08:37:57;;;;;;;59.90;32.30;;;-5.50;99.90;-6.30;101853.00;;;;4905547;28;93624;-65
2024/01/11 08:40:23;;;;;;;63.03;32.90;;;-5.80;99.90;-6.30;101847.00;;;;4904146;28;93439;-65
2024/01/11 08:42:49;;;;;;;63.30;32.03;;;-5.60;99.90;-6.20;101857.00;;;;4906671;28;112939;-64
2024/01/11 08:45:17;;;;;;;54.80;31.10;;;-5.50;99.90;-6.20;101850.00;;;;4902827;28;108489;-65
2024/01/11 08:47:45;;;;;;;67.13;33.57;;;-5.50;99.90;-6.20;101853.00;;;;4905092;28;94306;-65
2024/01/11 08:50:15;;;;;;;60.37;31.17;;;-5.50;99.90;-6.20;101838.00;;;;4902886;28;96988;-65
2024/01/11 08:52:42;;;;;;;60.43;30.40;;;-5.70;99.90;-6.10;101836.00;;;;4906683;28;93007;-65
2024/01/11 08:55:08;;;;;;;64.70;31.50;;;-5.50;99.90;-6.00;101827.00;;;;4901925;28;93322;-65
2024/01/11 08:57:38;;;;;;;56.57;31.33;;;-5.40;99.90;-6.00;101860.00;;;;4908062;28;121134;-65
2024/01/11 09:00:06;;;;;;;63.90;34.50;;;-5.40;99.90;-5.90;101864.00;;;;4901731;28;92990;-64
2024/01/11 09:02:32;;;;;;;55.77;30.73;;;-5.30;99.90;-5.60;101877.00;;;;4905311;28;92950;-64
2024/01/11 09:04:57;;;;;;;55.53;29.10;;;-5.10;99.90;-5.40;101879.00;;;;4907230;28;93053;-64
2024/01/11 09:07:23;;;;;;;61.53;31.33;;;-4.90;99.90;-5.20;101864.00;;;;4904910;28;121866;-64
2024/01/11 09:09:49;;;;;;;56.77;29.83;;;-4.80;99.90;-4.90;101861.00;;;;4907733;28;121880;-66
2024/01/11 09:12:14;;;;;;;59.73;29.23;;;-4.40;99.90;-4.70;101871.00;;;;4898326;28;112289;-65
2024/01/11 09:14:40;;;;;;;54.57;30.53;;;-4.20;99.90;-4.50;101871.00;;;;4899866;28;95167;-63
2024/01/11 09:17:08;;;;;;;52.83;27.60;;;-4.00;99.90;-4.40;101881.00;;;;4905585;28;93457;-64
2024/01/11 09:19:34;;;;;;;56.07;31.13;;;-3.50;99.90;-4.40;101882.00;;;;4910787;28;93248;-64
2024/01/11 09:22:00;;;;;;;46.80;26.33;;;-3.80;99.90;-4.50;101875.00;;;;4903151;28;109625;-64
2024/01/11 09:24:25;;;;;;;54.60;26.00;;;-4.10;99.90;-4.60;101874.00;;;;4901806;28;108665;-64
2024/01/11 09:26:51;;;;;;;50.33;26.47;;;-3.90;99.90;-4.70;101870.00;;;;4900190;28;121834;-63
2024/01/11 09:29:17;;;;;;;53.67;26.70;;;-4.00;99.90;-4.70;101870.00;;;;4899946;28;122660;-64
2024/01/11 09:31:43;;;;;;;48.40;24.80;;;-4.20;99.90;-4.90;101872.00;;;;4903430;28;112835;-65
2024/01/11 09:34:08;;;;;;;44.60;25.97;;;-4.30;99.90;-4.90;101870.00;;;;4902091;28;94078;-64
2024/01/11 09:36:34;;;;;;;47.93;27.23;;;-4.30;99.90;-5.00;101855.00;;;;4902172;28;122756;-65
2024/01/11 09:39:00;;;;;;;49.57;26.03;;;-4.30;99.90;-5.00;101855.00;;;;4901037;28;122099;-65
2024/01/11 09:41:26;;;;;;;59.03;29.17;;;-4.30;99.90;-5.00;101852.00;;;;4898818;28;100047;-63
2024/01/11 09:43:54;;;;;;;52.67;28.27;;;-4.40;99.90;-4.90;101862.00;;;;4901649;28;93301;-64
2024/01/11 09:46:21;;;;;;;53.57;27.07;;;-4.30;99.90;-4.70;101855.00;;;;4906608;28;122767;-64
2024/01/11 09:48:48;;;;;;;53.53;29.03;;;-4.20;99.90;-4.60;101857.00;;;;4901438;28;94479;-63
2024/01/11 09:51:16;;;;;;;51.57;26.50;;;-4.00;99.90;-4.40;101856.00;;;;4912733;28;113574;-64
2024/01/11 09:53:43;;;;;;;48.33;28.03;;;-3.90;99.90;-4.20;101854.00;;;;4900125;28;109740;-64
2024/01/11 09:56:10;;;;;;;44.07;25.50;;;-3.90;99.90;-4.00;101840.00;;;;4899737;28;106505;-62
2024/01/11 09:58:39;;;;;;;49.33;26.17;;;-3.50;99.90;-3.80;101829.00;;;;4903105;28;94439;-62
2024/01/11 10:01:12;;;;;;;42.70;24.53;;;-3.30;99.90;-3.60;101829.00;;;;4902218;28;92810;-63
2024/01/11 10:03:43;;;;;;;43.67;25.63;;;-3.20;99.90;-3.50;101822.00;;;;4899559;28;92923;-63
2024/01/11 10:06:10;;;;;;;49.50;26.97;;;-3.00;99.90;-3.20;101821.00;;;;4899082;28;92929;-63
2024/01/11 10:08:36;;;;;;;45.07;24.90;;;-2.80;99.90;-3.00;101805.00;;;;4913373;28;94044;-63
2024/01/11 10:11:03;;;;;;;50.63;24.73;;;-2.50;99.90;-2.70;101807.00;;;;4903901;28;111826;-62
2024/01/11 10:13:31;;;;;;;43.13;22.13;;;-2.30;99.90;-2.50;101807.00;;;;4903921;28;94346;-62
2024/01/11 10:16:13;;;;;;;39.10;22.23;;;-2.00;99.90;-2.20;101817.00;;;;4898960;28;110879;-62